createdAt,value
2019-02-15T17:50:19.750Z,101185.59
2019-02-15T17:52:53.111Z,101186.23
2019-02-15T17:55:26.988Z,101184.03
2019-02-15T17:58:00.867Z,101178.73
2019-02-15T18:00:34.034Z,101181.50
2019-02-15T18:03:07.863Z,101179.08
2019-02-15T18:05:41.392Z,101180.31
2019-02-15T18:08:14.550Z,101179.84
2019-02-15T18:10:48.230Z,101174.11
2019-02-15T18:13:21.370Z,101169.86
2019-02-15T18:15:55.123Z,101176.98
2019-02-15T18:18:28.599Z,101177.03
2019-02-15T18:21:01.994Z,101178.91
2019-02-15T18:23:35.293Z,101175.84
2019-02-15T18:26:09.286Z,101177.08
2019-02-15T18:28:42.883Z,101167.36
2019-02-15T18:31:16.529Z,101162.03
2019-02-15T18:33:50.390Z,101154.30
2019-02-15T18:36:24.209Z,101154.89
2019-02-15T18:38:57.638Z,101154.55
2019-02-15T18:41:32.126Z,101152.06
2019-02-15T18:44:05.614Z,101145.92
2019-02-15T18:46:39.215Z,101145.66
2019-02-15T18:49:19.196Z,101146.48
2019-02-15T18:51:48.710Z,101139.84
2019-02-15T18:54:22.631Z,101141.23
2019-02-15T18:56:56.577Z,101136.13
2019-02-15T18:59:29.611Z,101137.58
2019-02-15T19:02:03.422Z,101139.22
2019-02-15T19:04:36.811Z,101132.89
2019-02-15T19:07:10.240Z,101134.68
2019-02-15T19:09:44.103Z,101125.13
2019-02-15T19:12:17.618Z,101122.19
2019-02-15T19:14:51.094Z,101122.41
2019-02-15T19:17:25.107Z,101119.50
2019-02-15T19:19:57.912Z,101124.35
2019-02-15T19:22:30.925Z,101118.79
2019-02-15T19:25:03.963Z,101118.08
2019-02-15T19:27:37.055Z,101117.83
2019-02-15T19:30:12.699Z,101111.70
2019-02-15T19:32:47.067Z,101108.70
2019-02-15T19:35:20.271Z,101105.89
2019-02-15T19:37:54.268Z,101102.73
2019-02-15T19:40:27.386Z,101102.70
2019-02-15T19:43:01.442Z,101101.05
2019-02-15T19:45:34.856Z,101102.58
2019-02-15T19:48:08.205Z,101101.13
2019-02-15T19:50:41.020Z,101098.28
2019-02-15T19:53:14.231Z,101097.70
2019-02-15T19:55:47.275Z,101092.17
2019-02-15T19:58:20.783Z,101093.66
2019-02-15T20:00:54.332Z,101092.51
2019-02-15T20:03:27.575Z,101090.38
2019-02-15T20:06:01.282Z,101087.87
2019-02-15T20:08:35.311Z,101083.73
2019-02-15T20:11:09.158Z,101084.22
2019-02-15T20:13:43.141Z,101088.64
2019-02-15T20:16:16.226Z,101087.38
2019-02-15T20:18:49.291Z,101088.30
2019-02-15T20:21:22.911Z,101086.05
2019-02-15T20:23:56.554Z,101080.14
2019-02-15T20:26:30.390Z,101079.21
2019-02-15T20:29:03.511Z,101078.31
2019-02-15T20:31:36.300Z,101080.66
2019-02-15T20:34:08.940Z,101074.02
2019-02-15T20:36:42.079Z,101077.08
2019-02-15T20:39:15.641Z,101075.05
2019-02-15T20:41:48.775Z,101071.52
2019-02-15T20:44:22.067Z,101070.72
2019-02-15T20:46:55.732Z,101073.03
2019-02-15T20:49:28.462Z,101075.14
2019-02-15T20:52:02.360Z,101071.09
2019-02-15T20:54:36.101Z,101070.97
2019-02-15T20:57:09.521Z,101064.19
2019-02-15T20:59:43.130Z,101063.23
2019-02-15T21:02:16.969Z,101060.75
2019-02-15T21:04:50.568Z,101058.03
2019-02-15T21:07:23.658Z,101059.17
2019-02-15T21:09:57.366Z,101065.27
2019-02-15T21:12:31.275Z,101065.70
2019-02-15T21:15:05.538Z,101060.61
2019-02-15T21:17:39.044Z,101059.67
2019-02-15T21:20:12.744Z,101062.80
2019-02-15T21:22:46.390Z,101056.88
2019-02-15T21:25:20.434Z,101058.58
2019-02-15T21:27:53.226Z,101052.16
2019-02-15T21:30:26.442Z,101049.16
2019-02-15T21:33:00.371Z,101046.34
2019-02-15T21:35:33.848Z,101049.92
2019-02-15T21:38:06.244Z,101046.78
2019-02-15T21:40:40.073Z,101049.61
2019-02-15T21:43:13.764Z,101045.12
2019-02-15T21:45:47.068Z,101049.55
2019-02-15T21:48:20.559Z,101046.82
2019-02-15T21:50:53.736Z,101037.59
2019-02-15T21:53:26.009Z,101046.21
2019-02-15T21:55:59.932Z,101042.30
2019-02-15T21:58:33.090Z,101044.68
2019-02-15T22:01:06.664Z,101037.61
2019-02-15T22:03:40.194Z,101025.12
2019-02-15T22:06:13.402Z,101023.58
2019-02-15T22:08:46.391Z,101025.01
2019-02-15T22:11:22.250Z,101035.81
2019-02-15T22:13:56.153Z,101027.30
2019-02-15T22:16:29.565Z,101024.82
2019-02-15T22:19:03.061Z,101029.14
2019-02-15T22:21:36.227Z,101023.56
2019-02-15T22:24:09.319Z,101030.33
2019-02-15T22:26:42.992Z,101020.62
2019-02-15T22:29:16.825Z,101021.18
2019-02-15T22:31:49.885Z,101019.89
2019-02-15T22:34:22.906Z,101012.18
2019-02-15T22:36:55.945Z,101008.41
2019-02-15T22:39:29.301Z,101005.95
2019-02-15T22:42:02.257Z,101016.24
2019-02-15T22:44:36.189Z,101013.98
2019-02-15T22:47:09.538Z,101023.33
2019-02-15T22:49:43.622Z,101021.97
2019-02-15T22:52:17.377Z,101019.02
2019-02-15T22:54:50.652Z,101016.55
2019-02-15T22:57:23.492Z,101017.75
2019-02-15T23:00:00.942Z,101017.97
2019-02-15T23:02:32.021Z,101022.49
2019-02-15T23:05:05.937Z,101016.86
2019-02-15T23:07:39.948Z,101013.89
2019-02-15T23:10:13.669Z,101013.23
2019-02-15T23:12:47.121Z,101013.03
2019-02-15T23:15:20.633Z,101005.94
2019-02-15T23:17:53.342Z,101008.16
2019-02-15T23:20:26.476Z,101001.78
2019-02-15T23:22:59.596Z,101000.84
2019-02-15T23:25:32.195Z,100994.41
2019-02-15T23:28:05.763Z,100998.84
2019-02-15T23:30:39.099Z,100989.37
2019-02-15T23:33:13.192Z,100988.41
2019-02-15T23:35:46.782Z,100988.67
2019-02-15T23:38:19.869Z,100991.01
2019-02-15T23:40:53.752Z,100990.41
2019-02-15T23:43:27.183Z,100994.30
2019-02-15T23:46:01.528Z,100983.00
2019-02-15T23:48:35.214Z,100984.62
2019-02-15T23:51:09.216Z,100988.30
2019-02-15T23:53:42.714Z,100983.01
2019-02-15T23:56:15.030Z,100987.97
2019-02-15T23:58:48.378Z,100986.56
